sensor_id;sensor_type;location;lat;lon;timestamp;temperature;humidity
4564;DHT22;2294;51.818;8.484;2022-12-29T00:01:53;12.70;99.90
4564;DHT22;2294;51.818;8.484;2022-12-29T00:04:22;12.70;99.90
4564;DHT22;2294;51.818;8.484;2022-12-29T00:06:49;12.70;99.90
4564;DHT22;2294;51.818;8.484;2022-12-29T00:09:16;12.70;99.90
4564;DHT22;2294;51.818;8.484;2022-12-29T00:11:43;12.80;99.90
4564;DHT22;2294;51.818;8.484;2022-12-29T00:14:11;12.80;99.90
4564;DHT22;2294;51.818;8.484;2022-12-29T00:16:56;12.80;99.90
4564;DHT22;2294;51.818;8.484;2022-12-29T00:19:24;12.80;99.90
4564;DHT22;2294;51.818;8.484;2022-12-29T00:22:09;12.80;99.90
4564;DHT22;2294;51.818;8.484;2022-12-29T00:24:53;12.80;99.90
4564;DHT22;2294;51.818;8.484;2022-12-29T00:27:37;12.90;99.90
4564;DHT22;2294;51.818;8.484;2022-12-29T00:30:22;12.90;99.90
4564;DHT22;2294;51.818;8.484;2022-12-29T00:33:10;12.90;99.90
4564;DHT22;2294;51.818;8.484;2022-12-29T00:35:59;12.90;99.90
4564;DHT22;2294;51.818;8.484;2022-12-29T00:38:27;12.90;99.90
4564;DHT22;2294;51.818;8.484;2022-12-29T00:41:11;12.90;99.90
4564;DHT22;2294;51.818;8.484;2022-12-29T00:43:55;13.00;99.90
4564;DHT22;2294;51.818;8.484;2022-12-29T00:46:31;13.00;99.90
4564;DHT22;2294;51.818;8.484;2022-12-29T00:48:59;13.00;99.90
4564;DHT22;2294;51.818;8.484;2022-12-29T00:51:45;13.00;99.90
4564;DHT22;2294;51.818;8.484;2022-12-29T00:54:12;13.00;99.90
4564;DHT22;2294;51.818;8.484;2022-12-29T00:56:39;13.00;99.90
4564;DHT22;2294;51.818;8.484;2022-12-29T00:59:08;13.00;99.90
4564;DHT22;2294;51.818;8.484;2022-12-29T01:01:36;13.10;99.90
4564;DHT22;2294;51.818;8.484;2022-12-29T01:04:04;13.10;99.90
4564;DHT22;2294;51.818;8.484;2022-12-29T01:06:31;13.20;99.90
4564;DHT22;2294;51.818;8.484;2022-12-29T01:08:59;13.20;99.90
4564;DHT22;2294;51.818;8.484;2022-12-29T01:11:44;13.20;99.90
4564;DHT22;2294;51.818;8.484;2022-12-29T01:14:11;13.20;99.90
4564;DHT22;2294;51.818;8.484;2022-12-29T01:16:38;13.20;99.90
4564;DHT22;2294;51.818;8.484;2022-12-29T01:19:05;13.20;99.90
4564;DHT22;2294;51.818;8.484;2022-12-29T01:21:32;13.20;99.90
4564;DHT22;2294;51.818;8.484;2022-12-29T01:24:01;13.20;99.90
4564;DHT22;2294;51.818;8.484;2022-12-29T01:26:28;13.30;99.90
4564;DHT22;2294;51.818;8.484;2022-12-29T01:28:54;13.30;99.90
4564;DHT22;2294;51.818;8.484;2022-12-29T01:31:21;13.30;99.90
4564;DHT22;2294;51.818;8.484;2022-12-29T01:33:48;13.30;99.90
4564;DHT22;2294;51.818;8.484;2022-12-29T01:36:18;13.30;99.90
4564;DHT22;2294;51.818;8.484;2022-12-29T01:38:45;13.30;99.90
4564;DHT22;2294;51.818;8.484;2022-12-29T01:41:14;13.30;99.90
4564;DHT22;2294;51.818;8.484;2022-12-29T01:43:44;13.30;99.90
4564;DHT22;2294;51.818;8.484;2022-12-29T01:46:22;13.40;99.90
4564;DHT22;2294;51.818;8.484;2022-12-29T01:48:53;13.40;99.90
4564;DHT22;2294;51.818;8.484;2022-12-29T01:51:22;13.50;99.90
4564;DHT22;2294;51.818;8.484;2022-12-29T01:53:50;13.50;99.90
4564;DHT22;2294;51.818;8.484;2022-12-29T01:56:19;13.40;99.90
4564;DHT22;2294;51.818;8.484;2022-12-29T01:58:50;13.50;99.90
4564;DHT22;2294;51.818;8.484;2022-12-29T02:01:19;13.50;99.90
4564;DHT22;2294;51.818;8.484;2022-12-29T02:03:46;13.60;99.90
4564;DHT22;2294;51.818;8.484;2022-12-29T02:06:17;13.50;99.90
4564;DHT22;2294;51.818;8.484;2022-12-29T02:08:46;13.50;99.90
4564;DHT22;2294;51.818;8.484;2022-12-29T02:11:15;13.60;99.90
4564;DHT22;2294;51.818;8.484;2022-12-29T02:13:43;13.60;99.90
4564;DHT22;2294;51.818;8.484;2022-12-29T02:16:26;13.60;99.90
4564;DHT22;2294;51.818;8.484;2022-12-29T02:19:20;13.70;99.90
4564;DHT22;2294;51.818;8.484;2022-12-29T02:22:02;13.60;99.90
4564;DHT22;2294;51.818;8.484;2022-12-29T02:25:03;13.70;99.90
4564;DHT22;2294;51.818;8.484;2022-12-29T02:27:53;13.70;99.90
4564;DHT22;2294;51.818;8.484;2022-12-29T02:30:55;13.70;99.90
4564;DHT22;2294;51.818;8.484;2022-12-29T02:33:34;13.70;99.90
4564;DHT22;2294;51.818;8.484;2022-12-29T02:36:09;13.60;99.90
4564;DHT22;2294;51.818;8.484;2022-12-29T02:38:50;13.70;99.90
4564;DHT22;2294;51.818;8.484;2022-12-29T02:41:22;13.70;99.90
4564;DHT22;2294;51.818;8.484;2022-12-29T02:43:54;13.70;99.90
4564;DHT22;2294;51.818;8.484;2022-12-29T02:46:28;13.70;99.90
4564;DHT22;2294;51.818;8.484;2022-12-29T02:49:06;13.60;99.90
4564;DHT22;2294;51.818;8.484;2022-12-29T02:51:39;13.60;99.90
4564;DHT22;2294;51.818;8.484;2022-12-29T02:54:08;13.50;99.90
4564;DHT22;2294;51.818;8.484;2022-12-29T02:56:52;13.70;99.90
4564;DHT22;2294;51.818;8.484;2022-12-29T02:59:19;13.60;99.90
4564;DHT22;2294;51.818;8.484;2022-12-29T03:02:09;13.60;99.90
4564;DHT22;2294;51.818;8.484;2022-12-29T03:04:56;13.70;99.90
4564;DHT22;2294;51.818;8.484;2022-12-29T03:07:31;13.60;99.90
4564;DHT22;2294;51.818;8.484;2022-12-29T03:10:04;13.60;99.90
4564;DHT22;2294;51.818;8.484;2022-12-29T03:12:39;13.70;99.90
4564;DHT22;2294;51.818;8.484;2022-12-29T03:15:28;13.60;99.90
4564;DHT22;2294;51.818;8.484;2022-12-29T03:18:20;13.60;99.90
4564;DHT22;2294;51.818;8.484;2022-12-29T03:20:52;13.60;99.90
4564;DHT22;2294;51.818;8.484;2022-12-29T03:23:22;13.60;99.90
4564;DHT22;2294;51.818;8.484;2022-12-29T03:25:54;13.60;99.90
4564;DHT22;2294;51.818;8.484;2022-12-29T03:28:23;13.70;99.90
4564;DHT22;2294;51.818;8.484;2022-12-29T03:30:52;13.90;99.90
4564;DHT22;2294;51.818;8.484;2022-12-29T03:33:22;13.50;99.90
4564;DHT22;2294;51.818;8.484;2022-12-29T03:35:51;13.50;99.90
4564;DHT22;2294;51.818;8.484;2022-12-29T03:38:24;13.40;99.90
4564;DHT22;2294;51.818;8.484;2022-12-29T03:40:55;13.40;99.90
4564;DHT22;2294;51.818;8.484;2022-12-29T03:43:23;13.50;99.90
4564;DHT22;2294;51.818;8.484;2022-12-29T03:45:51;13.40;99.90
4564;DHT22;2294;51.818;8.484;2022-12-29T03:48:18;13.30;99.90
4564;DHT22;2294;51.818;8.484;2022-12-29T03:50:46;13.20;99.90
4564;DHT22;2294;51.818;8.484;2022-12-29T03:53:13;13.40;99.90
4564;DHT22;2294;51.818;8.484;2022-12-29T03:55:40;13.20;99.90
4564;DHT22;2294;51.818;8.484;2022-12-29T03:58:06;13.20;99.90
4564;DHT22;2294;51.818;8.484;2022-12-29T04:00:33;13.20;99.90
4564;DHT22;2294;51.818;8.484;2022-12-29T04:03:00;13.20;99.90
4564;DHT22;2294;51.818;8.484;2022-12-29T04:05:27;13.10;99.90
4564;DHT22;2294;51.818;8.484;2022-12-29T04:07:55;13.20;99.90
4564;DHT22;2294;51.818;8.484;2022-12-29T04:10:22;13.20;99.90
4564;DHT22;2294;51.818;8.484;2022-12-29T04:12:49;13.20;99.90
4564;DHT22;2294;51.818;8.484;2022-12-29T04:15:16;13.20;99.90
4564;DHT22;2294;51.818;8.484;2022-12-29T04:17:42;13.10;99.90
4564;DHT22;2294;51.818;8.484;2022-12-29T04:20:10;13.20;99.90
4564;DHT22;2294;51.818;8.484;2022-12-29T04:23:00;13.20;99.90
4564;DHT22;2294;51.818;8.484;2022-12-29T04:25:27;13.20;99.90
4564;DHT22;2294;51.818;8.484;2022-12-29T04:27:54;13.20;99.90
4564;DHT22;2294;51.818;8.484;2022-12-29T04:30:21;13.20;99.90
4564;DHT22;2294;51.818;8.484;2022-12-29T04:32:48;13.20;99.90
4564;DHT22;2294;51.818;8.484;2022-12-29T04:35:15;13.20;99.90
4564;DHT22;2294;51.818;8.484;2022-12-29T04:37:42;13.10;99.90
4564;DHT22;2294;51.818;8.484;2022-12-29T04:40:11;13.00;99.90
4564;DHT22;2294;51.818;8.484;2022-12-29T04:42:38;13.00;99.90
4564;DHT22;2294;51.818;8.484;2022-12-29T04:45:06;13.00;99.90
4564;DHT22;2294;51.818;8.484;2022-12-29T04:47:33;13.00;99.90
4564;DHT22;2294;51.818;8.484;2022-12-29T04:50:00;13.10;99.90
4564;DHT22;2294;51.818;8.484;2022-12-29T04:52:27;13.20;99.90
4564;DHT22;2294;51.818;8.484;2022-12-29T04:54:54;13.20;99.90
4564;DHT22;2294;51.818;8.484;2022-12-29T04:57:22;13.20;99.90
4564;DHT22;2294;51.818;8.484;2022-12-29T04:59:49;13.20;99.90
4564;DHT22;2294;51.818;8.484;2022-12-29T05:02:16;13.30;99.90
4564;DHT22;2294;51.818;8.484;2022-12-29T05:04:43;13.30;99.90
4564;DHT22;2294;51.818;8.484;2022-12-29T05:07:10;13.30;99.90
4564;DHT22;2294;51.818;8.484;2022-12-29T05:09:37;13.30;99.90
4564;DHT22;2294;51.818;8.484;2022-12-29T05:12:04;13.30;99.90
4564;DHT22;2294;51.818;8.484;2022-12-29T05:14:33;13.30;99.90
4564;DHT22;2294;51.818;8.484;2022-12-29T05:17:00;13.20;99.90
4564;DHT22;2294;51.818;8.484;2022-12-29T05:19:26;13.20;99.90
4564;DHT22;2294;51.818;8.484;2022-12-29T05:21:53;13.10;99.90
4564;DHT22;2294;51.818;8.484;2022-12-29T05:24:20;13.20;99.90
4564;DHT22;2294;51.818;8.484;2022-12-29T05:26:47;13.30;99.90
4564;DHT22;2294;51.818;8.484;2022-12-29T05:29:14;13.40;99.90
4564;DHT22;2294;51.818;8.484;2022-12-29T05:31:42;13.40;99.90
4564;DHT22;2294;51.818;8.484;2022-12-29T05:34:10;13.40;99.90
4564;DHT22;2294;51.818;8.484;2022-12-29T05:36:38;13.40;99.90
4564;DHT22;2294;51.818;8.484;2022-12-29T05:39:05;13.40;99.90
4564;DHT22;2294;51.818;8.484;2022-12-29T05:41:33;13.40;99.90
4564;DHT22;2294;51.818;8.484;2022-12-29T05:44:00;13.50;99.90
4564;DHT22;2294;51.818;8.484;2022-12-29T05:46:27;13.40;99.90
4564;DHT22;2294;51.818;8.484;2022-12-29T05:48:55;13.50;99.90
4564;DHT22;2294;51.818;8.484;2022-12-29T05:51:22;13.50;99.90
4564;DHT22;2294;51.818;8.484;2022-12-29T05:53:49;13.50;99.90
4564;DHT22;2294;51.818;8.484;2022-12-29T05:56:16;13.40;99.90
4564;DHT22;2294;51.818;8.484;2022-12-29T05:58:43;13.50;99.90
4564;DHT22;2294;51.818;8.484;2022-12-29T06:01:10;13.50;99.90
4564;DHT22;2294;51.818;8.484;2022-12-29T06:03:37;13.50;99.90
4564;DHT22;2294;51.818;8.484;2022-12-29T06:06:05;13.50;99.90
4564;DHT22;2294;51.818;8.484;2022-12-29T06:08:32;13.50;99.90
4564;DHT22;2294;51.818;8.484;2022-12-29T06:10:59;13.40;99.90
4564;DHT22;2294;51.818;8.484;2022-12-29T06:13:26;13.50;99.90
4564;DHT22;2294;51.818;8.484;2022-12-29T06:15:54;13.40;99.90
4564;DHT22;2294;51.818;8.484;2022-12-29T06:18:21;13.40;99.90
4564;DHT22;2294;51.818;8.484;2022-12-29T06:20:48;13.40;99.90
4564;DHT22;2294;51.818;8.484;2022-12-29T06:23:16;13.40;99.90
4564;DHT22;2294;51.818;8.484;2022-12-29T06:25:43;13.40;99.90
4564;DHT22;2294;51.818;8.484;2022-12-29T06:28:10;13.50;99.90
4564;DHT22;2294;51.818;8.484;2022-12-29T06:30:37;13.40;99.90
4564;DHT22;2294;51.818;8.484;2022-12-29T06:33:04;13.30;99.90
4564;DHT22;2294;51.818;8.484;2022-12-29T06:35:33;13.30;99.90
4564;DHT22;2294;51.818;8.484;2022-12-29T06:38:00;13.30;99.90
4564;DHT22;2294;51.818;8.484;2022-12-29T06:40:29;13.30;99.90
4564;DHT22;2294;51.818;8.484;2022-12-29T06:42:56;13.30;99.90
4564;DHT22;2294;51.818;8.484;2022-12-29T06:45:23;13.20;99.90
4564;DHT22;2294;51.818;8.484;2022-12-29T06:47:50;13.10;99.90
4564;DHT22;2294;51.818;8.484;2022-12-29T06:50:17;13.30;99.90
4564;DHT22;2294;51.818;8.484;2022-12-29T06:52:44;13.40;99.90
4564;DHT22;2294;51.818;8.484;2022-12-29T06:55:11;13.30;99.90
4564;DHT22;2294;51.818;8.484;2022-12-29T06:57:39;13.30;99.90
4564;DHT22;2294;51.818;8.484;2022-12-29T07:00:07;13.30;99.90
4564;DHT22;2294;51.818;8.484;2022-12-29T07:02:35;13.30;99.90
4564;DHT22;2294;51.818;8.484;2022-12-29T07:05:01;13.20;99.90
4564;DHT22;2294;51.818;8.484;2022-12-29T07:07:28;13.20;99.90
4564;DHT22;2294;51.818;8.484;2022-12-29T07:09:55;13.30;99.90
4564;DHT22;2294;51.818;8.484;2022-12-29T07:12:22;13.30;99.90
4564;DHT22;2294;51.818;8.484;2022-12-29T07:14:50;13.20;99.90
4564;DHT22;2294;51.818;8.484;2022-12-29T07:17:17;13.20;99.90
4564;DHT22;2294;51.818;8.484;2022-12-29T07:19:44;13.10;99.90
4564;DHT22;2294;51.818;8.484;2022-12-29T07:22:11;13.10;99.90
4564;DHT22;2294;51.818;8.484;2022-12-29T07:24:37;13.10;99.90
4564;DHT22;2294;51.818;8.484;2022-12-29T07:27:05;13.00;99.90
4564;DHT22;2294;51.818;8.484;2022-12-29T07:29:31;12.80;99.90
4564;DHT22;2294;51.818;8.484;2022-12-29T07:32:00;12.90;99.90
4564;DHT22;2294;51.818;8.484;2022-12-29T07:34:27;12.90;99.90
4564;DHT22;2294;51.818;8.484;2022-12-29T07:36:53;13.10;99.90
4564;DHT22;2294;51.818;8.484;2022-12-29T07:39:20;13.00;99.90
4564;DHT22;2294;51.818;8.484;2022-12-29T07:41:47;13.10;99.90
4564;DHT22;2294;51.818;8.484;2022-12-29T07:44:14;13.00;99.90
4564;DHT22;2294;51.818;8.484;2022-12-29T07:46:41;13.00;99.90
4564;DHT22;2294;51.818;8.484;2022-12-29T07:49:09;13.10;99.90
4564;DHT22;2294;51.818;8.484;2022-12-29T07:51:36;13.00;99.90
4564;DHT22;2294;51.818;8.484;2022-12-29T07:54:03;13.00;99.90
4564;DHT22;2294;51.818;8.484;2022-12-29T07:56:30;13.00;99.90
4564;DHT22;2294;51.818;8.484;2022-12-29T07:58:57;13.00;99.90
4564;DHT22;2294;51.818;8.484;2022-12-29T08:01:24;12.90;99.90
4564;DHT22;2294;51.818;8.484;2022-12-29T08:03:51;12.90;99.90
4564;DHT22;2294;51.818;8.484;2022-12-29T08:06:19;12.90;99.90
4564;DHT22;2294;51.818;8.484;2022-12-29T08:08:47;12.90;99.90
4564;DHT22;2294;51.818;8.484;2022-12-29T08:11:14;12.90;99.90
4564;DHT22;2294;51.818;8.484;2022-12-29T08:13:40;12.80;99.90
4564;DHT22;2294;51.818;8.484;2022-12-29T08:16:07;12.80;99.90
4564;DHT22;2294;51.818;8.484;2022-12-29T08:18:34;12.80;99.90
4564;DHT22;2294;51.818;8.484;2022-12-29T08:21:02;12.80;99.90
4564;DHT22;2294;51.818;8.484;2022-12-29T08:23:31;12.80;99.90
4564;DHT22;2294;51.818;8.484;2022-12-29T08:25:58;12.80;99.90
4564;DHT22;2294;51.818;8.484;2022-12-29T08:28:25;12.80;99.90
4564;DHT22;2294;51.818;8.484;2022-12-29T08:30:56;12.80;99.90
4564;DHT22;2294;51.818;8.484;2022-12-29T08:33:23;12.80;99.90
4564;DHT22;2294;51.818;8.484;2022-12-29T08:35:50;12.80;99.90
4564;DHT22;2294;51.818;8.484;2022-12-29T08:38:17;12.70;99.90
4564;DHT22;2294;51.818;8.484;2022-12-29T08:40:46;12.60;99.90
4564;DHT22;2294;51.818;8.484;2022-12-29T08:43:13;12.60;99.90
4564;DHT22;2294;51.818;8.484;2022-12-29T08:45:40;12.60;99.90
4564;DHT22;2294;51.818;8.484;2022-12-29T08:48:07;12.70;99.90
4564;DHT22;2294;51.818;8.484;2022-12-29T08:50:34;12.70;99.90
4564;DHT22;2294;51.818;8.484;2022-12-29T08:53:01;12.70;99.90
4564;DHT22;2294;51.818;8.484;2022-12-29T08:55:28;12.70;99.90
4564;DHT22;2294;51.818;8.484;2022-12-29T08:57:56;12.80;99.90
4564;DHT22;2294;51.818;8.484;2022-12-29T09:00:23;12.90;99.90
4564;DHT22;2294;51.818;8.484;2022-12-29T09:02:51;12.80;99.90
4564;DHT22;2294;51.818;8.484;2022-12-29T09:05:17;12.80;99.90
4564;DHT22;2294;51.818;8.484;2022-12-29T09:07:44;12.70;99.90
4564;DHT22;2294;51.818;8.484;2022-12-29T09:10:11;12.70;99.90
4564;DHT22;2294;51.818;8.484;2022-12-29T09:12:38;12.60;99.90
4564;DHT22;2294;51.818;8.484;2022-12-29T09:15:08;12.50;99.90
4564;DHT22;2294;51.818;8.484;2022-12-29T09:17:35;12.60;99.90
4564;DHT22;2294;51.818;8.484;2022-12-29T09:20:09;12.60;99.90
4564;DHT22;2294;51.818;8.484;2022-12-29T09:22:36;12.50;99.90
4564;DHT22;2294;51.818;8.484;2022-12-29T09:25:04;12.60;99.90
4564;DHT22;2294;51.818;8.484;2022-12-29T09:27:31;12.80;99.90
4564;DHT22;2294;51.818;8.484;2022-12-29T09:29:58;12.90;99.90
4564;DHT22;2294;51.818;8.484;2022-12-29T09:32:27;13.00;99.90
4564;DHT22;2294;51.818;8.484;2022-12-29T09:34:53;13.00;99.90
4564;DHT22;2294;51.818;8.484;2022-12-29T09:37:20;12.90;99.90
4564;DHT22;2294;51.818;8.484;2022-12-29T09:39:48;12.80;99.90
4564;DHT22;2294;51.818;8.484;2022-12-29T09:42:20;12.80;99.90
4564;DHT22;2294;51.818;8.484;2022-12-29T09:44:57;12.70;99.90
4564;DHT22;2294;51.818;8.484;2022-12-29T09:47:28;12.70;99.90
4564;DHT22;2294;51.818;8.484;2022-12-29T09:49:59;12.70;99.90
4564;DHT22;2294;51.818;8.484;2022-12-29T09:52:31;12.70;99.90
4564;DHT22;2294;51.818;8.484;2022-12-29T09:55:01;12.70;99.90
4564;DHT22;2294;51.818;8.484;2022-12-29T09:57:34;12.70;99.90
4564;DHT22;2294;51.818;8.484;2022-12-29T10:00:05;12.70;99.90
4564;DHT22;2294;51.818;8.484;2022-12-29T10:02:38;12.60;99.90
4564;DHT22;2294;51.818;8.484;2022-12-29T10:05:24;12.60;99.90
4564;DHT22;2294;51.818;8.484;2022-12-29T10:08:02;12.60;99.90
4564;DHT22;2294;51.818;8.484;2022-12-29T10:10:35;12.60;99.90
4564;DHT22;2294;51.818;8.484;2022-12-29T10:13:24;12.70;99.90
4564;DHT22;2294;51.818;8.484;2022-12-29T10:15:59;12.60;99.90
4564;DHT22;2294;51.818;8.484;2022-12-29T10:18:45;12.50;99.90
4564;DHT22;2294;51.818;8.484;2022-12-29T10:21:22;12.50;99.90
4564;DHT22;2294;51.818;8.484;2022-12-29T10:23:52;12.40;99.90
4564;DHT22;2294;51.818;8.484;2022-12-29T10:26:23;12.40;99.90
4564;DHT22;2294;51.818;8.484;2022-12-29T10:28:55;12.30;99.90
4564;DHT22;2294;51.818;8.484;2022-12-29T10:31:25;12.20;99.90
4564;DHT22;2294;51.818;8.484;2022-12-29T10:33:58;12.20;99.90
4564;DHT22;2294;51.818;8.484;2022-12-29T10:36:30;12.30;99.90
4564;DHT22;2294;51.818;8.484;2022-12-29T10:39:06;12.40;99.90
4564;DHT22;2294;51.818;8.484;2022-12-29T10:41:41;12.40;99.90
4564;DHT22;2294;51.818;8.484;2022-12-29T10:44:14;12.50;99.90
4564;DHT22;2294;51.818;8.484;2022-12-29T10:46:44;12.70;99.90
4564;DHT22;2294;51.818;8.484;2022-12-29T10:49:17;12.80;99.90
4564;DHT22;2294;51.818;8.484;2022-12-29T10:51:46;12.80;99.90
4564;DHT22;2294;51.818;8.484;2022-12-29T10:54:16;12.70;99.90
4564;DHT22;2294;51.818;8.484;2022-12-29T10:56:47;12.80;99.90
4564;DHT22;2294;51.818;8.484;2022-12-29T10:59:19;12.80;99.90
4564;DHT22;2294;51.818;8.484;2022-12-29T11:01:55;12.90;99.90
4564;DHT22;2294;51.818;8.484;2022-12-29T11:04:45;12.90;99.90
4564;DHT22;2294;51.818;8.484;2022-12-29T11:07:17;12.90;99.90
4564;DHT22;2294;51.818;8.484;2022-12-29T11:09:45;12.80;99.90
4564;DHT22;2294;51.818;8.484;2022-12-29T11:12:21;12.90;99.90
4564;DHT22;2294;51.818;8.484;2022-12-29T11:15:02;12.80;99.90
4564;DHT22;2294;51.818;8.484;2022-12-29T11:17:29;12.80;99.90
4564;DHT22;2294;51.818;8.484;2022-12-29T11:19:57;12.80;99.90
4564;DHT22;2294;51.818;8.484;2022-12-29T11:22:27;12.70;99.90
4564;DHT22;2294;51.818;8.484;2022-12-29T11:24:55;12.70;99.90
4564;DHT22;2294;51.818;8.484;2022-12-29T11:27:31;12.60;99.90
4564;DHT22;2294;51.818;8.484;2022-12-29T11:29:58;12.70;99.90
4564;DHT22;2294;51.818;8.484;2022-12-29T11:32:26;12.70;99.90
4564;DHT22;2294;51.818;8.484;2022-12-29T11:34:57;12.70;99.90
4564;DHT22;2294;51.818;8.484;2022-12-29T11:37:28;12.70;99.90
4564;DHT22;2294;51.818;8.484;2022-12-29T11:39:58;12.70;99.90
4564;DHT22;2294;51.818;8.484;2022-12-29T11:42:34;12.60;99.90
4564;DHT22;2294;51.818;8.484;2022-12-29T11:45:06;12.50;99.90
4564;DHT22;2294;51.818;8.484;2022-12-29T11:47:33;12.60;99.90
4564;DHT22;2294;51.818;8.484;2022-12-29T11:50:07;12.50;99.90
4564;DHT22;2294;51.818;8.484;2022-12-29T11:52:36;12.50;99.90
4564;DHT22;2294;51.818;8.484;2022-12-29T11:55:16;12.50;99.90
4564;DHT22;2294;51.818;8.484;2022-12-29T11:57:43;12.50;99.90
4564;DHT22;2294;51.818;8.484;2022-12-29T12:00:15;12.40;99.90
4564;DHT22;2294;51.818;8.484;2022-12-29T12:02:48;12.40;99.90
4564;DHT22;2294;51.818;8.484;2022-12-29T12:05:35;12.40;99.90
4564;DHT22;2294;51.818;8.484;2022-12-29T12:08:09;12.40;99.90
4564;DHT22;2294;51.818;8.484;2022-12-29T12:10:42;12.30;99.90
4564;DHT22;2294;51.818;8.484;2022-12-29T12:13:20;12.30;99.90
4564;DHT22;2294;51.818;8.484;2022-12-29T12:15:52;12.20;99.90
4564;DHT22;2294;51.818;8.484;2022-12-29T12:18:28;12.30;99.90
4564;DHT22;2294;51.818;8.484;2022-12-29T12:21:04;12.20;99.90
4564;DHT22;2294;51.818;8.484;2022-12-29T12:23:41;12.20;99.90
4564;DHT22;2294;51.818;8.484;2022-12-29T12:26:13;12.20;99.90
4564;DHT22;2294;51.818;8.484;2022-12-29T12:28:48;12.20;99.90
4564;DHT22;2294;51.818;8.484;2022-12-29T12:31:21;12.20;99.90
4564;DHT22;2294;51.818;8.484;2022-12-29T12:33:53;12.20;99.90
4564;DHT22;2294;51.818;8.484;2022-12-29T12:36:38;12.20;99.90
4564;DHT22;2294;51.818;8.484;2022-12-29T12:39:11;12.20;99.90
4564;DHT22;2294;51.818;8.484;2022-12-29T12:41:48;12.20;99.90
4564;DHT22;2294;51.818;8.484;2022-12-29T12:44:27;12.10;99.90
4564;DHT22;2294;51.818;8.484;2022-12-29T12:47:38;12.10;99.90
4564;DHT22;2294;51.818;8.484;2022-12-29T12:50:16;12.10;99.90
4564;DHT22;2294;51.818;8.484;2022-12-29T12:53:03;12.10;99.90
4564;DHT22;2294;51.818;8.484;2022-12-29T12:56:00;12.10;99.90
4564;DHT22;2294;51.818;8.484;2022-12-29T12:58:36;12.10;99.90
4564;DHT22;2294;51.818;8.484;2022-12-29T13:01:18;12.10;99.90
4564;DHT22;2294;51.818;8.484;2022-12-29T13:04:02;12.10;99.90
4564;DHT22;2294;51.818;8.484;2022-12-29T13:06:40;12.10;99.90
4564;DHT22;2294;51.818;8.484;2022-12-29T13:09:29;12.10;99.90
4564;DHT22;2294;51.818;8.484;2022-12-29T13:12:16;12.00;99.90
4564;DHT22;2294;51.818;8.484;2022-12-29T13:14:57;12.10;99.90
4564;DHT22;2294;51.818;8.484;2022-12-29T13:17:32;12.10;99.90
4564;DHT22;2294;51.818;8.484;2022-12-29T13:20:07;12.00;99.90
4564;DHT22;2294;51.818;8.484;2022-12-29T13:22:41;12.00;99.90
4564;DHT22;2294;51.818;8.484;2022-12-29T13:25:22;12.00;99.90
4564;DHT22;2294;51.818;8.484;2022-12-29T13:27:54;12.00;99.90
4564;DHT22;2294;51.818;8.484;2022-12-29T13:30:28;12.00;99.90
4564;DHT22;2294;51.818;8.484;2022-12-29T13:33:04;11.90;99.90
4564;DHT22;2294;51.818;8.484;2022-12-29T13:35:50;11.90;99.90
4564;DHT22;2294;51.818;8.484;2022-12-29T13:38:22;11.90;99.90
4564;DHT22;2294;51.818;8.484;2022-12-29T13:40:55;11.90;99.90
4564;DHT22;2294;51.818;8.484;2022-12-29T13:43:24;11.90;99.90
4564;DHT22;2294;51.818;8.484;2022-12-29T13:45:58;11.90;99.90
4564;DHT22;2294;51.818;8.484;2022-12-29T13:48:34;11.90;99.90
4564;DHT22;2294;51.818;8.484;2022-12-29T13:51:02;11.80;99.90
4564;DHT22;2294;51.818;8.484;2022-12-29T13:53:35;11.90;99.90
4564;DHT22;2294;51.818;8.484;2022-12-29T13:56:10;11.90;99.90
4564;DHT22;2294;51.818;8.484;2022-12-29T13:58:44;11.80;99.90
4564;DHT22;2294;51.818;8.484;2022-12-29T14:01:18;11.80;99.90
4564;DHT22;2294;51.818;8.484;2022-12-29T14:03:49;11.70;99.90
4564;DHT22;2294;51.818;8.484;2022-12-29T14:06:21;11.70;99.90
4564;DHT22;2294;51.818;8.484;2022-12-29T14:08:50;11.70;99.90
4564;DHT22;2294;51.818;8.484;2022-12-29T14:11:22;11.70;99.90
4564;DHT22;2294;51.818;8.484;2022-12-29T14:13:51;11.70;99.90
4564;DHT22;2294;51.818;8.484;2022-12-29T14:16:27;11.70;99.90
4564;DHT22;2294;51.818;8.484;2022-12-29T14:18:55;11.70;99.90
4564;DHT22;2294;51.818;8.484;2022-12-29T14:21:25;11.70;99.90
4564;DHT22;2294;51.818;8.484;2022-12-29T14:26:44;11.60;99.90
4564;DHT22;2294;51.818;8.484;2022-12-29T14:29:43;11.60;99.90
4564;DHT22;2294;51.818;8.484;2022-12-29T14:32:35;11.60;99.90
4564;DHT22;2294;51.818;8.484;2022-12-29T14:38:22;11.50;99.90
4564;DHT22;2294;51.818;8.484;2022-12-29T14:40:50;11.60;99.90
4564;DHT22;2294;51.818;8.484;2022-12-29T14:43:23;11.50;99.90
4564;DHT22;2294;51.818;8.484;2022-12-29T14:45:57;11.10;99.90
4564;DHT22;2294;51.818;8.484;2022-12-29T14:48:33;11.40;99.90
4564;DHT22;2294;51.818;8.484;2022-12-29T14:51:01;11.40;99.90
4564;DHT22;2294;51.818;8.484;2022-12-29T14:53:44;11.40;99.90
4564;DHT22;2294;51.818;8.484;2022-12-29T14:56:11;11.40;99.90
4564;DHT22;2294;51.818;8.484;2022-12-29T14:58:46;11.40;99.90
4564;DHT22;2294;51.818;8.484;2022-12-29T15:01:20;11.30;99.90
4564;DHT22;2294;51.818;8.484;2022-12-29T15:03:50;11.20;99.90
4564;DHT22;2294;51.818;8.484;2022-12-29T15:06:18;11.20;99.90
4564;DHT22;2294;51.818;8.484;2022-12-29T15:08:51;11.20;99.90
4564;DHT22;2294;51.818;8.484;2022-12-29T15:11:21;11.20;99.90
4564;DHT22;2294;51.818;8.484;2022-12-29T15:13:50;11.10;99.90
4564;DHT22;2294;51.818;8.484;2022-12-29T15:16:25;11.20;99.90
4564;DHT22;2294;51.818;8.484;2022-12-29T15:18:52;11.20;99.90
4564;DHT22;2294;51.818;8.484;2022-12-29T15:21:24;11.30;99.90
4564;DHT22;2294;51.818;8.484;2022-12-29T15:23:52;11.30;99.90
4564;DHT22;2294;51.818;8.484;2022-12-29T15:26:20;11.20;99.90
4564;DHT22;2294;51.818;8.484;2022-12-29T15:28:51;11.30;99.90
4564;DHT22;2294;51.818;8.484;2022-12-29T15:31:21;11.20;99.90
4564;DHT22;2294;51.818;8.484;2022-12-29T15:33:50;11.30;99.90
4564;DHT22;2294;51.818;8.484;2022-12-29T15:36:20;11.20;99.90
4564;DHT22;2294;51.818;8.484;2022-12-29T15:38:48;11.20;99.90
4564;DHT22;2294;51.818;8.484;2022-12-29T15:41:25;11.20;99.90
4564;DHT22;2294;51.818;8.484;2022-12-29T15:44:07;11.30;99.90
4564;DHT22;2294;51.818;8.484;2022-12-29T15:46:36;11.20;99.90
4564;DHT22;2294;51.818;8.484;2022-12-29T15:49:05;11.20;99.90
4564;DHT22;2294;51.818;8.484;2022-12-29T15:51:35;11.20;99.90
4564;DHT22;2294;51.818;8.484;2022-12-29T15:54:02;11.20;99.90
4564;DHT22;2294;51.818;8.484;2022-12-29T15:56:30;11.20;99.90
4564;DHT22;2294;51.818;8.484;2022-12-29T15:58:59;11.20;99.90
4564;DHT22;2294;51.818;8.484;2022-12-29T16:01:29;11.20;99.90
4564;DHT22;2294;51.818;8.484;2022-12-29T16:03:57;11.20;99.90
4564;DHT22;2294;51.818;8.484;2022-12-29T16:06:30;11.10;99.90
4564;DHT22;2294;51.818;8.484;2022-12-29T16:08:59;11.10;99.90
4564;DHT22;2294;51.818;8.484;2022-12-29T16:11:30;11.10;99.90
4564;DHT22;2294;51.818;8.484;2022-12-29T16:13:59;11.10;99.90
4564;DHT22;2294;51.818;8.484;2022-12-29T16:16:29;11.10;99.90
4564;DHT22;2294;51.818;8.484;2022-12-29T16:18:58;11.00;99.90
4564;DHT22;2294;51.818;8.484;2022-12-29T16:21:28;11.10;99.90
4564;DHT22;2294;51.818;8.484;2022-12-29T16:24:01;11.10;99.90
4564;DHT22;2294;51.818;8.484;2022-12-29T16:26:28;11.10;99.90
4564;DHT22;2294;51.818;8.484;2022-12-29T16:28:57;11.10;99.90
4564;DHT22;2294;51.818;8.484;2022-12-29T16:31:33;11.00;99.90
4564;DHT22;2294;51.818;8.484;2022-12-29T16:34:11;11.10;99.90
4564;DHT22;2294;51.818;8.484;2022-12-29T16:36:53;11.10;99.90